createdAt,value
2016-08-23T00:03:28.901Z,"  -75"
2016-08-23T00:08:26.599Z,"  -76"
2016-08-23T00:13:24.397Z,"  -75"
2016-08-23T00:18:22.270Z,"  -75"
2016-08-23T00:23:20.148Z,"  -78"
2016-08-23T00:28:17.950Z,"  -74"
2016-08-23T00:33:15.564Z,"  -74"
2016-08-23T00:38:13.410Z,"  -73"
2016-08-23T00:43:11.087Z,"  -75"
2016-08-23T00:48:08.955Z,"  -74"
2016-08-23T00:53:06.957Z,"  -74"
2016-08-23T00:58:04.700Z,"  -74"
2016-08-23T01:03:02.435Z,"  -74"
2016-08-23T01:08:00.268Z,"  -74"
2016-08-23T01:12:58.153Z,"  -73"
2016-08-23T01:17:56.121Z,"  -74"
2016-08-23T01:22:54.021Z,"  -76"
2016-08-23T01:27:51.905Z,"  -77"
2016-08-23T01:32:49.737Z,"  -75"
2016-08-23T01:37:47.595Z,"  -75"
2016-08-23T01:42:45.614Z,"  -74"
2016-08-23T01:47:43.133Z,"  -82"
2016-08-23T01:52:40.994Z,"  -76"
2016-08-23T01:57:38.667Z,"  -74"
2016-08-23T02:02:36.560Z,"  -75"
2016-08-23T02:07:34.355Z,"  -77"
2016-08-23T02:12:32.159Z,"  -76"
2016-08-23T02:17:29.822Z,"  -76"
2016-08-23T02:22:27.960Z,"  -76"
2016-08-23T02:27:25.786Z,"  -74"
2016-08-23T02:32:23.710Z,"  -78"
2016-08-23T02:37:21.494Z,"  -74"
2016-08-23T02:42:19.327Z,"  -75"
2016-08-23T02:47:17.111Z,"  -74"
2016-08-23T02:52:14.919Z,"  -78"
2016-08-23T02:57:12.642Z,"  -75"
2016-08-23T03:02:10.405Z,"  -76"
2016-08-23T03:07:08.267Z,"  -76"
2016-08-23T03:12:05.989Z,"  -76"
2016-08-23T03:17:03.793Z,"  -75"
2016-08-23T03:22:01.518Z,"  -75"
2016-08-23T03:26:59.320Z,"  -73"
2016-08-23T03:31:57.098Z,"  -77"
2016-08-23T03:36:54.913Z,"  -78"
2016-08-23T03:41:52.687Z,"  -73"
2016-08-23T03:46:50.613Z,"  -74"
2016-08-23T03:51:48.496Z,"  -75"
2016-08-23T03:56:46.296Z,"  -74"
2016-08-23T04:01:44.053Z,"  -73"
2016-08-23T04:06:41.890Z,"  -74"
2016-08-23T04:11:39.744Z,"  -74"
2016-08-23T04:16:37.535Z,"  -74"
2016-08-23T04:21:35.383Z,"  -75"
2016-08-23T04:26:33.173Z,"  -75"
2016-08-23T04:31:31.053Z,"  -74"
2016-08-23T04:36:28.848Z,"  -74"
2016-08-23T04:41:26.848Z,"  -74"
2016-08-23T04:46:24.545Z,"  -74"
2016-08-23T04:51:22.412Z,"  -75"
2016-08-23T04:56:20.236Z,"  -74"
2016-08-23T05:01:18.032Z,"  -75"
2016-08-23T05:06:15.989Z,"  -75"
2016-08-23T05:11:13.887Z,"  -75"
2016-08-23T05:16:11.799Z,"  -75"
2016-08-23T05:21:09.631Z,"  -74"
2016-08-23T05:26:07.493Z,"  -74"
2016-08-23T05:31:05.398Z,"  -74"
2016-08-23T05:36:03.334Z,"  -74"
2016-08-23T05:41:01.122Z,"  -74"
2016-08-23T05:45:58.844Z,"  -74"
2016-08-23T05:50:56.873Z,"  -74"
2016-08-23T05:55:54.823Z,"  -73"
2016-08-23T06:00:52.852Z,"  -74"
2016-08-23T06:05:50.632Z,"  -75"
2016-08-23T06:10:48.535Z,"  -74"
2016-08-23T06:15:46.573Z,"  -74"
2016-08-23T06:20:44.600Z,"  -74"
2016-08-23T06:25:42.618Z,"  -77"
2016-08-23T06:30:40.465Z,"  -74"
2016-08-23T06:35:38.494Z,"  -75"
2016-08-23T06:40:36.416Z,"  -74"
2016-08-23T06:45:34.411Z,"  -73"
2016-08-23T06:50:32.196Z,"  -74"
2016-08-23T06:55:30.020Z,"  -74"
2016-08-23T07:00:27.809Z,"  -74"
2016-08-23T07:05:25.722Z,"  -73"
2016-08-23T07:10:23.677Z,"  -76"
2016-08-23T07:15:21.312Z,"  -74"
2016-08-23T07:20:19.251Z,"  -79"
2016-08-23T07:25:16.997Z,"  -75"
2016-08-23T07:30:14.730Z,"  -74"
2016-08-23T07:35:12.616Z,"  -74"
2016-08-23T07:40:10.554Z,"  -74"
2016-08-23T07:45:08.402Z,"  -73"
2016-08-23T07:50:06.196Z,"  -75"
2016-08-23T07:55:04.091Z,"  -76"
2016-08-23T08:00:01.946Z,"  -79"
2016-08-23T08:05:00.061Z,"  -77"
2016-08-23T08:09:57.946Z,"  -75"
2016-08-23T08:14:56.219Z,"  -74"
2016-08-23T08:19:54.647Z,"  -74"
2016-08-23T08:24:52.777Z,"  -72"
2016-08-23T08:29:50.861Z,"  -74"
2016-08-23T08:34:49.107Z,"  -74"
2016-08-23T08:39:47.351Z,"  -75"
2016-08-23T08:44:45.319Z,"  -75"
2016-08-23T08:49:43.110Z,"  -75"
2016-08-23T08:54:40.784Z,"  -76"
2016-08-23T08:59:38.720Z,"  -75"
2016-08-23T09:04:36.785Z,"  -74"
2016-08-23T09:09:34.409Z,"  -74"
2016-08-23T09:14:32.094Z,"  -76"
2016-08-23T09:19:29.882Z,"  -74"
2016-08-23T09:24:27.609Z,"  -74"
2016-08-23T09:29:25.189Z,"  -73"
2016-08-23T09:34:22.924Z,"  -73"
2016-08-23T09:39:20.601Z,"  -73"
2016-08-23T09:44:18.514Z,"  -73"
2016-08-23T09:49:16.230Z,"  -72"
2016-08-23T09:54:14.091Z,"  -75"
2016-08-23T09:59:11.927Z,"  -74"
2016-08-23T10:04:09.596Z,"  -71"
2016-08-23T10:09:07.394Z,"  -74"
2016-08-23T10:14:05.318Z,"  -75"
2016-08-23T10:19:03.129Z,"  -81"
2016-08-23T10:24:00.951Z,"  -80"
2016-08-23T10:28:58.865Z,"  -83"
2016-08-23T10:33:56.649Z,"  -80"
2016-08-23T10:38:54.414Z,"  -80"
2016-08-23T10:43:52.133Z,"  -82"
2016-08-23T10:48:49.894Z,"  -81"
2016-08-23T10:53:47.711Z,"  -84"
2016-08-23T10:58:45.512Z,"  -83"
2016-08-23T11:03:43.461Z,"  -87"
2016-08-23T11:08:41.133Z,"  -81"
2016-08-23T11:13:39.023Z,"  -82"
2016-08-23T11:18:36.799Z,"  -80"
2016-08-23T11:23:34.620Z,"  -81"
2016-08-23T11:28:32.236Z,"  -78"
2016-08-23T11:33:30.322Z,"  -79"
2016-08-23T11:38:27.865Z,"  -78"
2016-08-23T11:43:25.700Z,"  -78"
2016-08-23T11:48:23.583Z,"  -78"
2016-08-23T11:53:21.539Z,"  -77"
2016-08-23T11:58:19.492Z,"  -77"
2016-08-23T12:03:17.222Z,"  -77"
2016-08-23T12:08:15.069Z,"  -77"
2016-08-23T12:13:12.803Z,"  -77"
2016-08-23T12:18:10.627Z,"  -77"
2016-08-23T12:23:08.337Z,"  -77"
2016-08-23T12:28:06.254Z,"  -77"
2016-08-23T12:33:04.556Z,"  -77"
2016-08-23T12:38:02.556Z,"  -78"
2016-08-23T12:43:00.509Z,"  -77"
2016-08-23T12:47:58.390Z,"  -76"
2016-08-23T12:52:56.092Z,"  -76"
2016-08-23T12:57:53.835Z,"  -77"
2016-08-23T13:02:51.545Z,"  -76"
2016-08-23T13:07:49.565Z,"  -76"
2016-08-23T13:12:47.441Z,"  -76"
2016-08-23T13:17:45.273Z,"  -76"
2016-08-23T13:22:43.270Z,"  -76"
2016-08-23T13:27:40.970Z,"  -76"
2016-08-23T13:32:38.726Z,"  -76"
2016-08-23T13:37:36.716Z,"  -76"
2016-08-23T13:42:34.523Z,"  -77"
2016-08-23T13:47:32.359Z,"  -77"
2016-08-23T13:52:30.236Z,"  -77"
2016-08-23T13:57:28.042Z,"  -76"
2016-08-23T14:02:25.861Z,"  -76"
2016-08-23T14:07:23.644Z,"  -77"
2016-08-23T14:12:21.330Z,"  -77"
2016-08-23T14:17:19.137Z,"  -77"
2016-08-23T14:22:17.028Z,"  -77"
2016-08-23T14:27:14.847Z,"  -76"
2016-08-23T14:32:12.686Z,"  -78"
2016-08-23T14:37:10.472Z,"  -78"
2016-08-23T14:42:10.751Z,"  -78"
2016-08-23T14:47:07.812Z,"  -77"
2016-08-23T14:52:05.577Z,"  -77"
2016-08-23T14:57:03.340Z,"  -76"
2016-08-23T15:02:01.283Z,"  -77"
2016-08-23T15:06:58.957Z,"  -77"
2016-08-23T15:11:56.698Z,"  -77"
2016-08-23T15:16:54.448Z,"  -77"
2016-08-23T15:21:52.180Z,"  -77"
2016-08-23T15:26:49.911Z,"  -77"
2016-08-23T15:31:47.623Z,"  -77"
2016-08-23T15:36:45.332Z,"  -77"
2016-08-23T15:41:42.990Z,"  -77"
2016-08-23T15:46:40.976Z,"  -77"
2016-08-23T15:51:39.065Z,"  -76"
2016-08-23T15:56:36.808Z,"  -77"
2016-08-23T16:01:34.492Z,"  -77"
2016-08-23T16:06:32.403Z,"  -77"
2016-08-23T16:11:30.240Z,"  -77"
2016-08-23T16:16:28.034Z,"  -77"
2016-08-23T16:21:25.768Z,"  -77"
2016-08-23T16:26:23.646Z,"  -80"
2016-08-23T16:31:21.737Z,"  -75"
2016-08-23T16:36:19.466Z,"  -76"
2016-08-23T16:41:17.258Z,"  -76"
2016-08-23T16:46:15.134Z,"  -75"
2016-08-23T16:51:13.493Z,"  -79"
2016-08-23T16:56:11.299Z,"  -76"
2016-08-23T17:01:09.822Z,"  -76"
2016-08-23T17:06:07.430Z,"  -77"
2016-08-23T17:11:05.109Z,"  -76"
2016-08-23T17:16:03.147Z,"  -76"
2016-08-23T17:21:00.852Z,"  -76"
2016-08-23T17:25:58.582Z,"  -76"
2016-08-23T17:30:56.397Z,"  -76"
2016-08-23T17:35:54.033Z,"  -77"
2016-08-23T17:40:51.919Z,"  -76"
2016-08-23T17:45:50.024Z,"  -76"
2016-08-23T17:50:47.883Z,"  -77"
2016-08-23T17:55:45.692Z,"  -77"
2016-08-23T18:00:43.357Z,"  -78"
2016-08-23T18:05:41.182Z,"  -77"
2016-08-23T18:10:38.989Z,"  -77"
2016-08-23T18:15:36.997Z,"  -77"
2016-08-23T18:20:34.759Z,"  -76"
2016-08-23T18:25:32.661Z,"  -77"
2016-08-23T18:30:30.337Z,"  -77"
2016-08-23T18:35:28.381Z,"  -77"
2016-08-23T18:40:26.111Z,"  -77"
2016-08-23T18:45:24.032Z,"  -76"
2016-08-23T18:50:21.819Z,"  -76"
2016-08-23T18:55:19.601Z,"  -79"
2016-08-23T19:00:17.653Z,"  -79"
2016-08-23T19:05:15.526Z,"  -78"
2016-08-23T19:10:13.405Z,"  -79"
2016-08-23T19:15:11.182Z,"  -79"
2016-08-23T19:20:09.079Z,"  -78"
2016-08-23T19:25:06.813Z,"  -78"
2016-08-23T19:30:04.637Z,"  -79"
2016-08-23T19:35:02.480Z,"  -79"
2016-08-23T19:40:00.170Z,"  -79"
2016-08-23T19:44:57.841Z,"  -79"
2016-08-23T19:49:55.915Z,"  -79"
2016-08-23T19:54:53.731Z,"  -79"
2016-08-23T19:59:51.581Z,"  -78"
2016-08-23T20:04:49.354Z,"  -78"
2016-08-23T20:09:47.376Z,"  -78"
2016-08-23T20:14:45.205Z,"  -78"
2016-08-23T20:19:42.996Z,"  -77"
2016-08-23T20:24:40.705Z,"  -79"
2016-08-23T20:29:38.572Z,"  -78"
2016-08-23T20:34:36.252Z,"  -78"
2016-08-23T20:39:34.088Z,"  -78"
2016-08-23T20:44:31.836Z,"  -77"
2016-08-23T20:49:29.510Z,"  -76"
2016-08-23T20:54:27.411Z,"  -77"
2016-08-23T20:59:25.217Z,"  -76"
2016-08-23T21:04:22.925Z,"  -77"
2016-08-23T21:09:20.758Z,"  -77"
2016-08-23T21:14:18.613Z,"  -77"
2016-08-23T21:19:16.385Z,"  -77"
2016-08-23T21:24:14.165Z,"  -76"
2016-08-23T21:29:12.272Z,"  -76"
2016-08-23T21:34:11.079Z,"  -77"
2016-08-23T21:39:08.598Z,"  -76"
2016-08-23T21:44:06.280Z,"  -77"
2016-08-23T21:49:04.079Z,"  -76"
2016-08-23T21:54:01.912Z,"  -77"
2016-08-23T21:58:59.627Z,"  -77"
2016-08-23T22:03:57.524Z,"  -77"
2016-08-23T22:08:55.386Z,"  -77"
2016-08-23T22:13:53.250Z,"  -77"
2016-08-23T22:18:51.099Z,"  -77"
2016-08-23T22:23:48.930Z,"  -77"
2016-08-23T22:28:46.630Z,"  -77"
2016-08-23T22:33:44.521Z,"  -77"
2016-08-23T22:38:42.281Z,"  -77"
2016-08-23T22:43:40.027Z,"  -77"
2016-08-23T22:48:37.926Z,"  -77"
2016-08-23T22:53:35.840Z,"  -77"
2016-08-23T22:58:33.575Z,"  -78"
2016-08-23T23:03:31.324Z,"  -77"
2016-08-23T23:08:29.177Z,"  -77"
2016-08-23T23:13:26.829Z,"  -77"
2016-08-23T23:18:24.812Z,"  -76"
2016-08-23T23:23:22.695Z,"  -77"
2016-08-23T23:28:20.547Z,"  -76"
2016-08-23T23:33:18.410Z,"  -76"
2016-08-23T23:38:16.226Z,"  -76"
2016-08-23T23:43:13.977Z,"  -77"
2016-08-23T23:48:11.984Z,"  -77"
2016-08-23T23:53:09.729Z,"  -76"
2016-08-23T23:58:07.556Z,"  -77"
